sensor_id;sensor_type;location;lat;lon;timestamp;P1;durP1;ratioP1;P2;durP2;ratioP2
74967;SDS011;63523;51.880;12.630;2023-09-07T00:00:58;5.77;;;3.10;;
74967;SDS011;63523;51.880;12.630;2023-09-07T00:03:25;6.47;;;3.20;;
74967;SDS011;63523;51.880;12.630;2023-09-07T00:05:50;5.83;;;3.40;;
74967;SDS011;63523;51.880;12.630;2023-09-07T00:08:15;6.30;;;3.30;;
74967;SDS011;63523;51.880;12.630;2023-09-07T00:10:40;5.77;;;2.93;;
74967;SDS011;63523;51.880;12.630;2023-09-07T00:13:06;6.50;;;3.28;;
74967;SDS011;63523;51.880;12.630;2023-09-07T00:15:35;6.50;;;3.43;;
74967;SDS011;63523;51.880;12.630;2023-09-07T00:18:02;6.35;;;3.45;;
74967;SDS011;63523;51.880;12.630;2023-09-07T00:20:28;5.83;;;3.23;;
74967;SDS011;63523;51.880;12.630;2023-09-07T00:22:53;6.43;;;3.15;;
74967;SDS011;63523;51.880;12.630;2023-09-07T00:25:18;7.63;;;3.40;;
74967;SDS011;63523;51.880;12.630;2023-09-07T00:27:45;6.32;;;3.25;;
74967;SDS011;63523;51.880;12.630;2023-09-07T00:30:10;6.43;;;3.63;;
74967;SDS011;63523;51.880;12.630;2023-09-07T00:32:36;6.80;;;3.63;;
74967;SDS011;63523;51.880;12.630;2023-09-07T00:35:03;6.00;;;3.13;;
74967;SDS011;63523;51.880;12.630;2023-09-07T00:37:28;6.82;;;3.10;;
74967;SDS011;63523;51.880;12.630;2023-09-07T00:39:54;6.90;;;3.10;;
74967;SDS011;63523;51.880;12.630;2023-09-07T00:42:19;8.83;;;3.60;;
74967;SDS011;63523;51.880;12.630;2023-09-07T00:44:44;7.43;;;3.40;;
74967;SDS011;63523;51.880;12.630;2023-09-07T00:47:10;8.07;;;3.43;;
74967;SDS011;63523;51.880;12.630;2023-09-07T00:49:36;6.38;;;3.40;;
74967;SDS011;63523;51.880;12.630;2023-09-07T00:52:03;6.20;;;3.13;;
74967;SDS011;63523;51.880;12.630;2023-09-07T00:54:29;6.65;;;3.95;;
74967;SDS011;63523;51.880;12.630;2023-09-07T00:56:55;5.47;;;3.07;;
74967;SDS011;63523;51.880;12.630;2023-09-07T00:59:20;6.93;;;3.33;;
74967;SDS011;63523;51.880;12.630;2023-09-07T01:01:46;6.55;;;3.40;;
74967;SDS011;63523;51.880;12.630;2023-09-07T01:04:11;7.07;;;3.57;;
74967;SDS011;63523;51.880;12.630;2023-09-07T01:06:38;7.50;;;3.23;;
74967;SDS011;63523;51.880;12.630;2023-09-07T01:09:10;6.45;;;2.85;;
74967;SDS011;63523;51.880;12.630;2023-09-07T01:11:38;6.10;;;3.30;;
74967;SDS011;63523;51.880;12.630;2023-09-07T01:14:03;6.68;;;3.40;;
74967;SDS011;63523;51.880;12.630;2023-09-07T01:16:29;6.03;;;3.43;;
74967;SDS011;63523;51.880;12.630;2023-09-07T01:18:55;5.82;;;2.97;;
74967;SDS011;63523;51.880;12.630;2023-09-07T01:21:21;7.38;;;3.05;;
74967;SDS011;63523;51.880;12.630;2023-09-07T01:23:47;6.27;;;3.17;;
74967;SDS011;63523;51.880;12.630;2023-09-07T01:26:14;8.68;;;3.97;;
74967;SDS011;63523;51.880;12.630;2023-09-07T01:28:40;7.15;;;3.58;;
74967;SDS011;63523;51.880;12.630;2023-09-07T01:31:06;8.30;;;3.60;;
74967;SDS011;63523;51.880;12.630;2023-09-07T01:33:32;7.93;;;3.70;;
74967;SDS011;63523;51.880;12.630;2023-09-07T01:35:57;7.43;;;3.80;;
74967;SDS011;63523;51.880;12.630;2023-09-07T01:38:23;8.70;;;4.17;;
74967;SDS011;63523;51.880;12.630;2023-09-07T01:40:48;8.40;;;3.67;;
74967;SDS011;63523;51.880;12.630;2023-09-07T01:43:13;6.37;;;3.50;;
74967;SDS011;63523;51.880;12.630;2023-09-07T01:45:39;7.32;;;3.40;;
74967;SDS011;63523;51.880;12.630;2023-09-07T01:48:08;7.00;;;3.53;;
74967;SDS011;63523;51.880;12.630;2023-09-07T01:50:35;6.70;;;3.75;;
74967;SDS011;63523;51.880;12.630;2023-09-07T01:53:01;7.47;;;3.60;;
74967;SDS011;63523;51.880;12.630;2023-09-07T01:55:28;7.70;;;4.00;;
74967;SDS011;63523;51.880;12.630;2023-09-07T01:57:53;6.53;;;3.30;;
74967;SDS011;63523;51.880;12.630;2023-09-07T02:00:18;7.50;;;4.10;;
74967;SDS011;63523;51.880;12.630;2023-09-07T02:02:44;6.57;;;3.67;;
74967;SDS011;63523;51.880;12.630;2023-09-07T02:05:09;6.93;;;3.50;;
74967;SDS011;63523;51.880;12.630;2023-09-07T02:07:34;6.93;;;3.50;;
74967;SDS011;63523;51.880;12.630;2023-09-07T02:10:01;8.27;;;3.57;;
74967;SDS011;63523;51.880;12.630;2023-09-07T02:12:28;6.70;;;3.45;;
74967;SDS011;63523;51.880;12.630;2023-09-07T02:14:53;6.67;;;3.93;;
74967;SDS011;63523;51.880;12.630;2023-09-07T02:17:18;7.63;;;3.40;;
74967;SDS011;63523;51.880;12.630;2023-09-07T02:19:44;7.93;;;3.70;;
74967;SDS011;63523;51.880;12.630;2023-09-07T02:22:09;7.80;;;3.83;;
74967;SDS011;63523;51.880;12.630;2023-09-07T02:24:35;7.10;;;3.57;;
74967;SDS011;63523;51.880;12.630;2023-09-07T02:27:00;7.50;;;3.90;;
74967;SDS011;63523;51.880;12.630;2023-09-07T02:29:26;6.72;;;3.38;;
74967;SDS011;63523;51.880;12.630;2023-09-07T02:31:51;6.93;;;3.90;;
74967;SDS011;63523;51.880;12.630;2023-09-07T02:34:17;9.97;;;4.40;;
74967;SDS011;63523;51.880;12.630;2023-09-07T02:36:42;6.70;;;3.60;;
74967;SDS011;63523;51.880;12.630;2023-09-07T02:39:07;7.73;;;3.70;;
74967;SDS011;63523;51.880;12.630;2023-09-07T02:41:33;7.23;;;3.80;;
74967;SDS011;63523;51.880;12.630;2023-09-07T02:43:58;6.93;;;3.60;;
74967;SDS011;63523;51.880;12.630;2023-09-07T02:46:24;6.77;;;3.47;;
74967;SDS011;63523;51.880;12.630;2023-09-07T02:48:49;7.80;;;3.67;;
74967;SDS011;63523;51.880;12.630;2023-09-07T02:51:15;8.70;;;3.63;;
74967;SDS011;63523;51.880;12.630;2023-09-07T02:53:40;10.77;;;4.17;;
74967;SDS011;63523;51.880;12.630;2023-09-07T02:56:05;7.30;;;3.60;;
74967;SDS011;63523;51.880;12.630;2023-09-07T02:58:32;7.78;;;3.72;;
74967;SDS011;63523;51.880;12.630;2023-09-07T03:00:58;7.38;;;3.80;;
74967;SDS011;63523;51.880;12.630;2023-09-07T03:03:23;7.37;;;4.30;;
74967;SDS011;63523;51.880;12.630;2023-09-07T03:05:49;7.37;;;3.80;;
74967;SDS011;63523;51.880;12.630;2023-09-07T03:08:14;7.17;;;3.63;;
74967;SDS011;63523;51.880;12.630;2023-09-07T03:10:40;6.93;;;3.87;;
74967;SDS011;63523;51.880;12.630;2023-09-07T03:13:06;9.30;;;3.83;;
74967;SDS011;63523;51.880;12.630;2023-09-07T03:15:31;7.38;;;4.13;;
74967;SDS011;63523;51.880;12.630;2023-09-07T03:17:57;6.90;;;3.90;;
74967;SDS011;63523;51.880;12.630;2023-09-07T03:20:22;7.03;;;3.55;;
74967;SDS011;63523;51.880;12.630;2023-09-07T03:22:48;8.10;;;4.20;;
74967;SDS011;63523;51.880;12.630;2023-09-07T03:25:14;8.40;;;3.97;;
74967;SDS011;63523;51.880;12.630;2023-09-07T03:27:39;6.80;;;3.70;;
74967;SDS011;63523;51.880;12.630;2023-09-07T03:30:05;8.93;;;4.47;;
74967;SDS011;63523;51.880;12.630;2023-09-07T03:32:31;6.93;;;3.83;;
74967;SDS011;63523;51.880;12.630;2023-09-07T03:35:02;9.13;;;3.65;;
74967;SDS011;63523;51.880;12.630;2023-09-07T03:37:29;7.97;;;4.17;;
74967;SDS011;63523;51.880;12.630;2023-09-07T03:39:55;9.00;;;3.80;;
74967;SDS011;63523;51.880;12.630;2023-09-07T03:42:21;8.43;;;3.70;;
74967;SDS011;63523;51.880;12.630;2023-09-07T03:44:46;7.47;;;4.00;;
74967;SDS011;63523;51.880;12.630;2023-09-07T03:47:13;7.97;;;3.67;;
74967;SDS011;63523;51.880;12.630;2023-09-07T03:49:39;7.45;;;3.55;;
74967;SDS011;63523;51.880;12.630;2023-09-07T03:52:07;6.80;;;3.63;;
74967;SDS011;63523;51.880;12.630;2023-09-07T03:54:32;7.30;;;3.95;;
74967;SDS011;63523;51.880;12.630;2023-09-07T03:57:00;8.03;;;3.67;;
74967;SDS011;63523;51.880;12.630;2023-09-07T03:59:29;6.97;;;3.55;;
74967;SDS011;63523;51.880;12.630;2023-09-07T04:01:54;13.70;;;4.03;;
74967;SDS011;63523;51.880;12.630;2023-09-07T04:04:20;8.37;;;3.80;;
74967;SDS011;63523;51.880;12.630;2023-09-07T04:06:48;9.03;;;4.47;;
74967;SDS011;63523;51.880;12.630;2023-09-07T04:09:14;8.93;;;4.43;;
74967;SDS011;63523;51.880;12.630;2023-09-07T04:11:39;8.50;;;4.47;;
74967;SDS011;63523;51.880;12.630;2023-09-07T04:14:05;9.63;;;4.90;;
74967;SDS011;63523;51.880;12.630;2023-09-07T04:16:30;8.13;;;4.27;;
74967;SDS011;63523;51.880;12.630;2023-09-07T04:18:56;9.37;;;3.97;;
74967;SDS011;63523;51.880;12.630;2023-09-07T04:21:21;7.33;;;3.80;;
74967;SDS011;63523;51.880;12.630;2023-09-07T04:23:46;7.97;;;4.27;;
74967;SDS011;63523;51.880;12.630;2023-09-07T04:26:12;8.07;;;4.10;;
74967;SDS011;63523;51.880;12.630;2023-09-07T04:28:38;9.90;;;4.63;;
74967;SDS011;63523;51.880;12.630;2023-09-07T04:31:06;8.13;;;5.10;;
74967;SDS011;63523;51.880;12.630;2023-09-07T04:33:32;11.45;;;4.75;;
74967;SDS011;63523;51.880;12.630;2023-09-07T04:36:11;8.43;;;4.50;;
74967;SDS011;63523;51.880;12.630;2023-09-07T04:38:38;7.85;;;4.53;;
74967;SDS011;63523;51.880;12.630;2023-09-07T04:41:10;9.13;;;4.95;;
74967;SDS011;63523;51.880;12.630;2023-09-07T04:43:37;9.95;;;4.82;;
74967;SDS011;63523;51.880;12.630;2023-09-07T04:46:05;8.40;;;5.00;;
74967;SDS011;63523;51.880;12.630;2023-09-07T04:48:31;8.27;;;4.67;;
74967;SDS011;63523;51.880;12.630;2023-09-07T04:50:59;10.27;;;5.40;;
74967;SDS011;63523;51.880;12.630;2023-09-07T04:53:29;10.50;;;6.13;;
74967;SDS011;63523;51.880;12.630;2023-09-07T04:55:56;9.35;;;5.18;;
74967;SDS011;63523;51.880;12.630;2023-09-07T04:58:22;9.45;;;4.75;;
74967;SDS011;63523;51.880;12.630;2023-09-07T05:00:47;10.27;;;5.00;;
74967;SDS011;63523;51.880;12.630;2023-09-07T05:03:13;10.73;;;5.80;;
74967;SDS011;63523;51.880;12.630;2023-09-07T05:05:40;10.15;;;4.93;;
74967;SDS011;63523;51.880;12.630;2023-09-07T05:08:06;7.88;;;4.80;;
74967;SDS011;63523;51.880;12.630;2023-09-07T05:10:35;8.77;;;4.70;;
74967;SDS011;63523;51.880;12.630;2023-09-07T05:13:01;12.25;;;5.43;;
74967;SDS011;63523;51.880;12.630;2023-09-07T05:15:27;8.37;;;4.47;;
74967;SDS011;63523;51.880;12.630;2023-09-07T05:17:53;9.65;;;5.25;;
74967;SDS011;63523;51.880;12.630;2023-09-07T05:20:19;11.25;;;5.20;;
74967;SDS011;63523;51.880;12.630;2023-09-07T05:22:44;9.67;;;5.27;;
74967;SDS011;63523;51.880;12.630;2023-09-07T05:25:10;8.90;;;5.30;;
74967;SDS011;63523;51.880;12.630;2023-09-07T05:27:37;11.43;;;5.60;;
74967;SDS011;63523;51.880;12.630;2023-09-07T05:30:03;8.23;;;5.45;;
74967;SDS011;63523;51.880;12.630;2023-09-07T05:32:38;9.23;;;5.20;;
74967;SDS011;63523;51.880;12.630;2023-09-07T05:35:04;9.68;;;5.05;;
74967;SDS011;63523;51.880;12.630;2023-09-07T05:37:33;9.63;;;5.17;;
74967;SDS011;63523;51.880;12.630;2023-09-07T05:39:58;8.93;;;5.35;;
74967;SDS011;63523;51.880;12.630;2023-09-07T05:42:24;14.33;;;5.97;;
74967;SDS011;63523;51.880;12.630;2023-09-07T05:44:51;10.00;;;5.03;;
74967;SDS011;63523;51.880;12.630;2023-09-07T05:47:16;10.48;;;5.65;;
74967;SDS011;63523;51.880;12.630;2023-09-07T05:49:45;11.13;;;6.13;;
74967;SDS011;63523;51.880;12.630;2023-09-07T05:52:14;10.10;;;5.63;;
74967;SDS011;63523;51.880;12.630;2023-09-07T05:54:39;8.67;;;5.33;;
74967;SDS011;63523;51.880;12.630;2023-09-07T05:57:04;8.40;;;5.53;;
74967;SDS011;63523;51.880;12.630;2023-09-07T05:59:30;10.68;;;5.15;;
74967;SDS011;63523;51.880;12.630;2023-09-07T06:01:55;9.10;;;5.00;;
74967;SDS011;63523;51.880;12.630;2023-09-07T06:04:22;8.90;;;5.38;;
74967;SDS011;63523;51.880;12.630;2023-09-07T06:06:47;9.77;;;5.17;;
74967;SDS011;63523;51.880;12.630;2023-09-07T06:09:12;9.90;;;5.07;;
74967;SDS011;63523;51.880;12.630;2023-09-07T06:11:38;9.07;;;5.27;;
74967;SDS011;63523;51.880;12.630;2023-09-07T06:14:03;8.80;;;5.33;;
74967;SDS011;63523;51.880;12.630;2023-09-07T06:16:28;11.37;;;5.47;;
74967;SDS011;63523;51.880;12.630;2023-09-07T06:18:53;9.70;;;5.07;;
74967;SDS011;63523;51.880;12.630;2023-09-07T06:21:19;11.67;;;5.80;;
74967;SDS011;63523;51.880;12.630;2023-09-07T06:23:44;11.03;;;5.83;;
74967;SDS011;63523;51.880;12.630;2023-09-07T06:26:09;9.53;;;5.20;;
74967;SDS011;63523;51.880;12.630;2023-09-07T06:28:34;9.77;;;5.40;;
74967;SDS011;63523;51.880;12.630;2023-09-07T06:31:00;9.27;;;5.23;;
74967;SDS011;63523;51.880;12.630;2023-09-07T06:33:25;10.13;;;5.03;;
74967;SDS011;63523;51.880;12.630;2023-09-07T06:35:50;9.47;;;5.50;;
74967;SDS011;63523;51.880;12.630;2023-09-07T06:38:16;9.40;;;5.17;;
74967;SDS011;63523;51.880;12.630;2023-09-07T06:40:46;9.20;;;5.10;;
74967;SDS011;63523;51.880;12.630;2023-09-07T06:43:12;12.40;;;5.63;;
74967;SDS011;63523;51.880;12.630;2023-09-07T06:45:38;12.95;;;5.05;;
74967;SDS011;63523;51.880;12.630;2023-09-07T06:48:04;9.60;;;5.23;;
74967;SDS011;63523;51.880;12.630;2023-09-07T06:50:29;11.93;;;5.10;;
74967;SDS011;63523;51.880;12.630;2023-09-07T06:52:55;11.03;;;5.20;;
74967;SDS011;63523;51.880;12.630;2023-09-07T06:55:20;10.27;;;5.20;;
74967;SDS011;63523;51.880;12.630;2023-09-07T06:57:45;9.33;;;5.13;;
74967;SDS011;63523;51.880;12.630;2023-09-07T07:00:11;10.67;;;5.10;;
74967;SDS011;63523;51.880;12.630;2023-09-07T07:02:37;10.50;;;4.97;;
74967;SDS011;63523;51.880;12.630;2023-09-07T07:05:02;11.63;;;5.57;;
74967;SDS011;63523;51.880;12.630;2023-09-07T07:07:29;7.70;;;4.40;;
74967;SDS011;63523;51.880;12.630;2023-09-07T07:09:54;10.05;;;4.97;;
74967;SDS011;63523;51.880;12.630;2023-09-07T07:12:20;10.43;;;4.77;;
74967;SDS011;63523;51.880;12.630;2023-09-07T07:14:46;10.85;;;5.15;;
74967;SDS011;63523;51.880;12.630;2023-09-07T07:17:11;9.73;;;5.20;;
74967;SDS011;63523;51.880;12.630;2023-09-07T07:19:36;8.23;;;4.73;;
74967;SDS011;63523;51.880;12.630;2023-09-07T07:22:02;9.17;;;5.80;;
74967;SDS011;63523;51.880;12.630;2023-09-07T07:24:28;9.57;;;4.80;;
74967;SDS011;63523;51.880;12.630;2023-09-07T07:26:53;9.27;;;5.00;;
74967;SDS011;63523;51.880;12.630;2023-09-07T07:29:18;9.35;;;4.88;;
74967;SDS011;63523;51.880;12.630;2023-09-07T07:31:43;9.87;;;5.20;;
74967;SDS011;63523;51.880;12.630;2023-09-07T07:34:09;10.67;;;5.20;;
74967;SDS011;63523;51.880;12.630;2023-09-07T07:36:34;10.40;;;5.03;;
74967;SDS011;63523;51.880;12.630;2023-09-07T07:39:00;10.15;;;4.85;;
74967;SDS011;63523;51.880;12.630;2023-09-07T07:41:26;9.77;;;5.10;;
74967;SDS011;63523;51.880;12.630;2023-09-07T07:43:51;7.85;;;4.40;;
74967;SDS011;63523;51.880;12.630;2023-09-07T07:46:17;10.40;;;4.87;;
74967;SDS011;63523;51.880;12.630;2023-09-07T07:48:44;9.18;;;4.60;;
74967;SDS011;63523;51.880;12.630;2023-09-07T07:51:09;7.00;;;4.40;;
74967;SDS011;63523;51.880;12.630;2023-09-07T07:53:35;9.40;;;4.83;;
74967;SDS011;63523;51.880;12.630;2023-09-07T07:56:00;9.80;;;4.60;;
74967;SDS011;63523;51.880;12.630;2023-09-07T07:58:26;10.80;;;5.70;;
74967;SDS011;63523;51.880;12.630;2023-09-07T08:00:51;8.52;;;4.70;;
74967;SDS011;63523;51.880;12.630;2023-09-07T08:03:17;8.87;;;4.47;;
74967;SDS011;63523;51.880;12.630;2023-09-07T08:05:42;8.07;;;4.50;;
74967;SDS011;63523;51.880;12.630;2023-09-07T08:08:07;10.53;;;4.97;;
74967;SDS011;63523;51.880;12.630;2023-09-07T08:10:34;9.00;;;4.82;;
74967;SDS011;63523;51.880;12.630;2023-09-07T08:13:01;10.30;;;4.95;;
74967;SDS011;63523;51.880;12.630;2023-09-07T08:15:27;10.03;;;4.90;;
74967;SDS011;63523;51.880;12.630;2023-09-07T08:17:53;7.80;;;4.75;;
74967;SDS011;63523;51.880;12.630;2023-09-07T08:20:19;8.37;;;4.57;;
74967;SDS011;63523;51.880;12.630;2023-09-07T08:22:44;7.90;;;4.90;;
74967;SDS011;63523;51.880;12.630;2023-09-07T08:25:11;9.43;;;4.23;;
74967;SDS011;63523;51.880;12.630;2023-09-07T08:27:38;11.73;;;4.53;;
74967;SDS011;63523;51.880;12.630;2023-09-07T08:30:14;8.23;;;4.53;;
74967;SDS011;63523;51.880;12.630;2023-09-07T08:32:42;7.72;;;4.20;;
74967;SDS011;63523;51.880;12.630;2023-09-07T08:35:09;8.57;;;4.22;;
74967;SDS011;63523;51.880;12.630;2023-09-07T08:37:37;7.90;;;4.23;;
74967;SDS011;63523;51.880;12.630;2023-09-07T08:40:03;8.63;;;4.40;;
74967;SDS011;63523;51.880;12.630;2023-09-07T08:42:30;8.65;;;4.40;;
74967;SDS011;63523;51.880;12.630;2023-09-07T08:44:55;10.27;;;4.60;;
74967;SDS011;63523;51.880;12.630;2023-09-07T08:47:25;10.95;;;4.60;;
74967;SDS011;63523;51.880;12.630;2023-09-07T08:49:54;8.75;;;3.97;;
74967;SDS011;63523;51.880;12.630;2023-09-07T08:52:20;8.32;;;4.90;;
74967;SDS011;63523;51.880;12.630;2023-09-07T08:54:46;8.73;;;3.93;;
74967;SDS011;63523;51.880;12.630;2023-09-07T08:57:13;8.95;;;4.45;;
74967;SDS011;63523;51.880;12.630;2023-09-07T08:59:39;7.80;;;3.80;;
74967;SDS011;63523;51.880;12.630;2023-09-07T09:02:07;7.17;;;4.30;;
74967;SDS011;63523;51.880;12.630;2023-09-07T09:04:34;6.72;;;3.95;;
74967;SDS011;63523;51.880;12.630;2023-09-07T09:07:00;8.63;;;4.20;;
74967;SDS011;63523;51.880;12.630;2023-09-07T09:09:29;7.18;;;3.90;;
74967;SDS011;63523;51.880;12.630;2023-09-07T09:12:06;10.13;;;4.20;;
74967;SDS011;63523;51.880;12.630;2023-09-07T09:14:34;10.68;;;3.65;;
74967;SDS011;63523;51.880;12.630;2023-09-07T09:17:00;9.18;;;3.53;;
74967;SDS011;63523;51.880;12.630;2023-09-07T09:19:32;8.33;;;3.50;;
74967;SDS011;63523;51.880;12.630;2023-09-07T09:21:58;8.35;;;4.10;;
74967;SDS011;63523;51.880;12.630;2023-09-07T09:24:23;6.80;;;3.63;;
74967;SDS011;63523;51.880;12.630;2023-09-07T09:26:49;8.13;;;3.70;;
74967;SDS011;63523;51.880;12.630;2023-09-07T09:29:14;11.23;;;4.23;;
74967;SDS011;63523;51.880;12.630;2023-09-07T09:31:40;7.95;;;3.78;;
74967;SDS011;63523;51.880;12.630;2023-09-07T09:34:06;8.03;;;3.63;;
74967;SDS011;63523;51.880;12.630;2023-09-07T09:36:35;6.70;;;3.50;;
74967;SDS011;63523;51.880;12.630;2023-09-07T09:39:01;6.57;;;3.80;;
74967;SDS011;63523;51.880;12.630;2023-09-07T09:41:28;7.90;;;4.10;;
74967;SDS011;63523;51.880;12.630;2023-09-07T09:43:56;7.53;;;4.00;;
74967;SDS011;63523;51.880;12.630;2023-09-07T09:46:23;7.95;;;3.88;;
74967;SDS011;63523;51.880;12.630;2023-09-07T09:48:49;7.63;;;4.30;;
74967;SDS011;63523;51.880;12.630;2023-09-07T09:51:16;7.30;;;3.83;;
74967;SDS011;63523;51.880;12.630;2023-09-07T09:53:43;5.80;;;3.60;;
74967;SDS011;63523;51.880;12.630;2023-09-07T09:56:10;7.55;;;3.67;;
74967;SDS011;63523;51.880;12.630;2023-09-07T09:58:35;6.10;;;3.40;;
74967;SDS011;63523;51.880;12.630;2023-09-07T10:01:00;10.30;;;3.70;;
74967;SDS011;63523;51.880;12.630;2023-09-07T10:03:34;6.73;;;3.73;;
74967;SDS011;63523;51.880;12.630;2023-09-07T10:06:09;9.10;;;3.70;;
74967;SDS011;63523;51.880;12.630;2023-09-07T10:08:58;6.50;;;3.92;;
74967;SDS011;63523;51.880;12.630;2023-09-07T10:11:32;7.07;;;3.72;;
74967;SDS011;63523;51.880;12.630;2023-09-07T10:14:02;7.95;;;3.67;;
74967;SDS011;63523;51.880;12.630;2023-09-07T10:16:28;6.67;;;3.77;;
74967;SDS011;63523;51.880;12.630;2023-09-07T10:18:54;6.05;;;4.00;;
74967;SDS011;63523;51.880;12.630;2023-09-07T10:21:19;9.37;;;4.00;;
74967;SDS011;63523;51.880;12.630;2023-09-07T10:23:49;7.70;;;4.60;;
74967;SDS011;63523;51.880;12.630;2023-09-07T10:26:17;8.10;;;4.40;;
74967;SDS011;63523;51.880;12.630;2023-09-07T10:28:46;8.52;;;4.82;;
74967;SDS011;63523;51.880;12.630;2023-09-07T10:31:15;8.37;;;4.53;;
74967;SDS011;63523;51.880;12.630;2023-09-07T10:33:44;7.70;;;4.60;;
74967;SDS011;63523;51.880;12.630;2023-09-07T10:36:26;8.90;;;5.05;;
74967;SDS011;63523;51.880;12.630;2023-09-07T10:38:53;7.60;;;4.75;;
74967;SDS011;63523;51.880;12.630;2023-09-07T10:41:20;6.60;;;4.53;;
74967;SDS011;63523;51.880;12.630;2023-09-07T10:43:49;8.43;;;4.50;;
74967;SDS011;63523;51.880;12.630;2023-09-07T10:46:19;8.25;;;4.60;;
74967;SDS011;63523;51.880;12.630;2023-09-07T10:48:48;9.27;;;4.88;;
74967;SDS011;63523;51.880;12.630;2023-09-07T10:51:14;7.55;;;5.00;;
74967;SDS011;63523;51.880;12.630;2023-09-07T10:53:39;8.73;;;4.97;;
74967;SDS011;63523;51.880;12.630;2023-09-07T10:56:04;9.30;;;5.10;;
74967;SDS011;63523;51.880;12.630;2023-09-07T10:58:34;8.80;;;5.10;;
74967;SDS011;63523;51.880;12.630;2023-09-07T11:01:01;7.50;;;4.50;;
74967;SDS011;63523;51.880;12.630;2023-09-07T11:03:30;9.32;;;4.32;;
74967;SDS011;63523;51.880;12.630;2023-09-07T11:05:56;7.78;;;4.47;;
74967;SDS011;63523;51.880;12.630;2023-09-07T11:08:32;6.93;;;4.70;;
74967;SDS011;63523;51.880;12.630;2023-09-07T11:10:58;7.53;;;4.47;;
74967;SDS011;63523;51.880;12.630;2023-09-07T11:13:25;10.88;;;4.72;;
74967;SDS011;63523;51.880;12.630;2023-09-07T11:15:55;7.13;;;4.80;;
74967;SDS011;63523;51.880;12.630;2023-09-07T11:18:21;7.28;;;4.80;;
74967;SDS011;63523;51.880;12.630;2023-09-07T11:20:48;7.33;;;3.97;;
74967;SDS011;63523;51.880;12.630;2023-09-07T11:23:14;7.03;;;4.65;;
74967;SDS011;63523;51.880;12.630;2023-09-07T11:25:40;8.68;;;4.38;;
74967;SDS011;63523;51.880;12.630;2023-09-07T11:28:07;6.80;;;4.38;;
74967;SDS011;63523;51.880;12.630;2023-09-07T11:30:34;9.07;;;4.32;;
74967;SDS011;63523;51.880;12.630;2023-09-07T11:33:04;7.00;;;4.13;;
74967;SDS011;63523;51.880;12.630;2023-09-07T11:35:30;6.70;;;3.63;;
74967;SDS011;63523;51.880;12.630;2023-09-07T11:37:56;6.77;;;3.80;;
74967;SDS011;63523;51.880;12.630;2023-09-07T11:40:21;6.23;;;3.93;;
74967;SDS011;63523;51.880;12.630;2023-09-07T11:42:47;6.67;;;3.40;;
74967;SDS011;63523;51.880;12.630;2023-09-07T11:45:12;7.27;;;3.70;;
74967;SDS011;63523;51.880;12.630;2023-09-07T11:47:38;6.07;;;3.80;;
74967;SDS011;63523;51.880;12.630;2023-09-07T11:50:04;7.30;;;3.90;;
74967;SDS011;63523;51.880;12.630;2023-09-07T11:52:31;6.40;;;4.25;;
74967;SDS011;63523;51.880;12.630;2023-09-07T11:54:56;7.63;;;3.90;;
74967;SDS011;63523;51.880;12.630;2023-09-07T11:57:22;8.27;;;3.85;;
74967;SDS011;63523;51.880;12.630;2023-09-07T11:59:47;8.00;;;3.93;;
74967;SDS011;63523;51.880;12.630;2023-09-07T12:02:12;7.73;;;3.90;;
74967;SDS011;63523;51.880;12.630;2023-09-07T12:04:40;6.90;;;3.67;;
74967;SDS011;63523;51.880;12.630;2023-09-07T12:07:05;7.00;;;4.00;;
74967;SDS011;63523;51.880;12.630;2023-09-07T12:09:30;8.20;;;3.73;;
74967;SDS011;63523;51.880;12.630;2023-09-07T12:11:56;7.90;;;3.73;;
74967;SDS011;63523;51.880;12.630;2023-09-07T12:14:21;6.77;;;3.50;;
74967;SDS011;63523;51.880;12.630;2023-09-07T12:16:47;8.13;;;3.42;;
74967;SDS011;63523;51.880;12.630;2023-09-07T12:19:12;5.63;;;3.83;;
74967;SDS011;63523;51.880;12.630;2023-09-07T12:21:38;8.25;;;3.67;;
74967;SDS011;63523;51.880;12.630;2023-09-07T12:24:03;8.17;;;4.10;;
74967;SDS011;63523;51.880;12.630;2023-09-07T12:26:29;6.70;;;3.80;;
74967;SDS011;63523;51.880;12.630;2023-09-07T12:28:54;6.83;;;3.93;;
74967;SDS011;63523;51.880;12.630;2023-09-07T12:31:19;10.60;;;3.93;;
74967;SDS011;63523;51.880;12.630;2023-09-07T12:33:44;7.80;;;3.70;;
74967;SDS011;63523;51.880;12.630;2023-09-07T12:36:10;7.80;;;3.77;;
74967;SDS011;63523;51.880;12.630;2023-09-07T12:38:36;8.20;;;4.03;;
74967;SDS011;63523;51.880;12.630;2023-09-07T12:41:02;7.05;;;4.00;;
74967;SDS011;63523;51.880;12.630;2023-09-07T12:43:27;7.23;;;3.77;;
74967;SDS011;63523;51.880;12.630;2023-09-07T12:45:53;12.83;;;4.40;;
74967;SDS011;63523;51.880;12.630;2023-09-07T12:48:19;6.17;;;3.70;;
74967;SDS011;63523;51.880;12.630;2023-09-07T12:50:45;7.30;;;4.25;;
74967;SDS011;63523;51.880;12.630;2023-09-07T12:53:10;7.23;;;3.53;;
74967;SDS011;63523;51.880;12.630;2023-09-07T12:55:35;5.87;;;3.70;;
74967;SDS011;63523;51.880;12.630;2023-09-07T12:58:01;5.88;;;4.07;;
74967;SDS011;63523;51.880;12.630;2023-09-07T13:00:26;6.63;;;4.10;;
74967;SDS011;63523;51.880;12.630;2023-09-07T13:02:53;8.98;;;3.95;;
74967;SDS011;63523;51.880;12.630;2023-09-07T13:05:19;6.60;;;4.20;;
74967;SDS011;63523;51.880;12.630;2023-09-07T13:07:45;7.10;;;4.07;;
74967;SDS011;63523;51.880;12.630;2023-09-07T13:10:10;10.15;;;3.88;;
74967;SDS011;63523;51.880;12.630;2023-09-07T13:12:36;7.43;;;3.90;;
74967;SDS011;63523;51.880;12.630;2023-09-07T13:15:02;7.88;;;4.13;;
74967;SDS011;63523;51.880;12.630;2023-09-07T13:17:28;5.85;;;3.70;;
74967;SDS011;63523;51.880;12.630;2023-09-07T13:19:53;8.30;;;3.80;;
74967;SDS011;63523;51.880;12.630;2023-09-07T13:22:19;6.07;;;3.80;;
74967;SDS011;63523;51.880;12.630;2023-09-07T13:24:44;5.60;;;3.60;;
74967;SDS011;63523;51.880;12.630;2023-09-07T13:27:09;6.10;;;3.90;;
74967;SDS011;63523;51.880;12.630;2023-09-07T13:29:35;6.05;;;3.47;;
74967;SDS011;63523;51.880;12.630;2023-09-07T13:32:01;5.97;;;3.83;;
74967;SDS011;63523;51.880;12.630;2023-09-07T13:34:27;7.05;;;4.00;;
74967;SDS011;63523;51.880;12.630;2023-09-07T13:36:52;6.90;;;3.80;;
74967;SDS011;63523;51.880;12.630;2023-09-07T13:39:18;7.53;;;3.75;;
74967;SDS011;63523;51.880;12.630;2023-09-07T13:41:44;7.53;;;3.73;;
74967;SDS011;63523;51.880;12.630;2023-09-07T13:44:09;6.05;;;3.95;;
74967;SDS011;63523;51.880;12.630;2023-09-07T13:46:34;8.70;;;4.20;;
74967;SDS011;63523;51.880;12.630;2023-09-07T13:49:00;9.37;;;3.60;;
74967;SDS011;63523;51.880;12.630;2023-09-07T13:51:25;8.67;;;4.90;;
74967;SDS011;63523;51.880;12.630;2023-09-07T13:53:51;6.63;;;3.70;;
74967;SDS011;63523;51.880;12.630;2023-09-07T13:56:17;10.07;;;3.72;;
74967;SDS011;63523;51.880;12.630;2023-09-07T13:58:43;7.30;;;3.95;;
74967;SDS011;63523;51.880;12.630;2023-09-07T14:01:08;6.70;;;3.70;;
74967;SDS011;63523;51.880;12.630;2023-09-07T14:03:34;9.17;;;3.30;;
74967;SDS011;63523;51.880;12.630;2023-09-07T14:05:59;6.93;;;3.83;;
74967;SDS011;63523;51.880;12.630;2023-09-07T14:08:25;6.38;;;3.63;;
74967;SDS011;63523;51.880;12.630;2023-09-07T14:10:50;8.93;;;4.00;;
74967;SDS011;63523;51.880;12.630;2023-09-07T14:13:17;6.73;;;3.60;;
74967;SDS011;63523;51.880;12.630;2023-09-07T14:15:43;7.10;;;3.45;;
74967;SDS011;63523;51.880;12.630;2023-09-07T14:18:08;8.10;;;3.73;;
74967;SDS011;63523;51.880;12.630;2023-09-07T14:20:34;6.53;;;3.72;;
74967;SDS011;63523;51.880;12.630;2023-09-07T14:22:59;7.80;;;3.70;;
74967;SDS011;63523;51.880;12.630;2023-09-07T14:25:25;9.65;;;4.63;;
74967;SDS011;63523;51.880;12.630;2023-09-07T14:27:51;7.07;;;3.73;;